Norse Mersey — IBEN — position and weather

sailwx.info

Track history (hours):
 
Tides and Currents Weather Stations Pressure Air Temp Water Temp Dewpoint Dewpoint Depression Visibility Wind Speed Wind Dir Waves Ship Positions

Norse Mersey

Operator: Norse Merchant Ferries

Last reported at 2016-May-03 07:15 UTC. Time now 2016-May-04 06:02 UTC.
Position N 38°33' E 015°35'.

Length 175 m; draft 5.6 m.

Type: Ship (hazmat cat A). MMSI: 247026000.

Date/timePositionNaut miles runAvg speedWind from/ knotsBaromVisibWave heightAir tempDewpointWater temp
2016-May-03 07:15N 38°33' E 015°35'913.7
2016-May-03 06:33N 38°24' E 015°40'1111.4
2016-May-03 05:34N 38°13' E 015°37'10 9.8
2016-May-03 04:33N 38°03' E 015°35'9 9.1
2016-May-03 03:33N 37°55' E 015°30'104 7.8
2016-May-02 14:09N 36°18' E 014°43'712.6
2016-May-02 13:33N 36°11' E 014°38'1313.3
2016-May-02 12:33N 35°58' E 014°35'5 0.5
2016-May-02 02:33N 35°54' E 014°31'118 6.4
2016-May-01 08:10N 37°45' E 015°20'1015.5
2016-May-01 07:31N 37°54' E 015°26'1515.6
2016-May-01 06:34N 38°08' E 015°34'1515.4
2016-May-01 05:33N 38°23' E 015°39'1616.0
2016-May-01 04:33N 38°38' E 015°31'1615.8
2016-May-01 03:32N 38°53' E 015°24'12 0.4
2016-Apr-30 01:21N 38°42' E 015°30'1316.1
2016-Apr-30 00:33N 38°30' E 015°36'1514.8
2016-Apr-29 23:33N 38°16' E 015°41'1413.8
2016-Apr-29 22:34N 38°03' E 015°34'16 1.2
2016-Apr-29 09:31N 37°50' E 015°24'1414.8
2016-Apr-29 08:33N 38°03' E 015°31'1515.1
2016-Apr-29 07:33N 38°16' E 015°40'1615.5
2016-Apr-29 06:33N 38°31' E 015°34'1715.2
2016-Apr-29 05:24N 38°48' E 015°26'10315.0
2016-Apr-28 22:33N 40°25' E 014°44'10 0.8
2016-Apr-28 09:10N 40°35' E 014°43'1015.7
2016-Apr-28 08:34N 40°26' E 014°44'1615.4
2016-Apr-28 07:30N 40°09' E 014°47'8115.6
2016-Apr-28 02:18N 38°54' E 015°25'1115.4
2016-Apr-28 01:33N 38°43' E 015°31'1616.0
2016-Apr-28 00:32N 38°28' E 015°38'1313.5
2016-Apr-27 23:33N 38°15' E 015°39'1413.9
2016-Apr-27 22:33N 38°02' E 015°33'10 0.7
2016-Apr-27 07:33N 37°54' E 015°26'1515.6
2016-Apr-27 06:33N 38°07' E 015°34'1413.8
2016-Apr-27 05:33N 38°21' E 015°39'1615.5
2016-Apr-27 04:33N 38°35' E 015°33'11115.2
2016-Apr-26 21:17N 40°20' E 014°45'1115.5
2016-Apr-26 20:33N 40°31' E 014°44'  
2016-Apr-24 01:29N 38°36' E 015°42'1415.5
2016-Apr-24 00:33N 38°22' E 015°42'1413.6
2016-Apr-23 23:33N 38°09' E 015°37'1515.0
2016-Apr-23 22:34N 37°55' E 015°30'12 0.8
2016-Apr-23 07:22N 37°46' E 015°21'  
Track history (hours):
 
Tides and Currents Weather Stations Pressure Air Temp Water Temp Dewpoint Dewpoint Depression Visibility Wind Speed Wind Dir Waves Ship Positions

Norse Mersey

Operator: Norse Merchant Ferries

Last reported at 2016-May-03 07:15 UTC. Time now 2016-May-04 06:02 UTC.
Position N 38°33' E 015°35'.

Length 175 m; draft 5.6 m.

Type: Ship (hazmat cat A). MMSI: 247026000.

Date/timePositionNaut miles runAvg speedWind from/ knotsBaromVisibWave heightAir tempDewpointWater temp
2016-May-03 07:15N 38°33' E 015°35'913.7
2016-May-03 06:33N 38°24' E 015°40'1111.4
2016-May-03 05:34N 38°13' E 015°37'10 9.8
2016-May-03 04:33N 38°03' E 015°35'9 9.1
2016-May-03 03:33N 37°55' E 015°30'104 7.8
2016-May-02 14:09N 36°18' E 014°43'712.6
2016-May-02 13:33N 36°11' E 014°38'1313.3
2016-May-02 12:33N 35°58' E 014°35'5 0.5
2016-May-02 02:33N 35°54' E 014°31'118 6.4
2016-May-01 08:10N 37°45' E 015°20'1015.5
2016-May-01 07:31N 37°54' E 015°26'1515.6
2016-May-01 06:34N 38°08' E 015°34'1515.4
2016-May-01 05:33N 38°23' E 015°39'1616.0
2016-May-01 04:33N 38°38' E 015°31'1615.8
2016-May-01 03:32N 38°53' E 015°24'12 0.4
2016-Apr-30 01:21N 38°42' E 015°30'1316.1
2016-Apr-30 00:33N 38°30' E 015°36'1514.8
2016-Apr-29 23:33N 38°16' E 015°41'1413.8
2016-Apr-29 22:34N 38°03' E 015°34'16 1.2
2016-Apr-29 09:31N 37°50' E 015°24'1414.8
2016-Apr-29 08:33N 38°03' E 015°31'1515.1
2016-Apr-29 07:33N 38°16' E 015°40'1615.5
2016-Apr-29 06:33N 38°31' E 015°34'1715.2
2016-Apr-29 05:24N 38°48' E 015°26'10315.0
2016-Apr-28 22:33N 40°25' E 014°44'10 0.8
2016-Apr-28 09:10N 40°35' E 014°43'1015.7
2016-Apr-28 08:34N 40°26' E 014°44'1615.4
2016-Apr-28 07:30N 40°09' E 014°47'8115.6
2016-Apr-28 02:18N 38°54' E 015°25'1115.4
2016-Apr-28 01:33N 38°43' E 015°31'1616.0
2016-Apr-28 00:32N 38°28' E 015°38'1313.5
2016-Apr-27 23:33N 38°15' E 015°39'1413.9
2016-Apr-27 22:33N 38°02' E 015°33'10 0.7
2016-Apr-27 07:33N 37°54' E 015°26'1515.6
2016-Apr-27 06:33N 38°07' E 015°34'1413.8
2016-Apr-27 05:33N 38°21' E 015°39'1615.5
2016-Apr-27 04:33N 38°35' E 015°33'11115.2
2016-Apr-26 21:17N 40°20' E 014°45'1115.5
2016-Apr-26 20:33N 40°31' E 014°44'  
2016-Apr-24 01:29N 38°36' E 015°42'1415.5
2016-Apr-24 00:33N 38°22' E 015°42'1413.6
2016-Apr-23 23:33N 38°09' E 015°37'1515.0
2016-Apr-23 22:34N 37°55' E 015°30'12 0.8
2016-Apr-23 07:22N 37°46' E 015°21'  

Dump ship's entire track history